Time;durP1;ratioP1;P1;durP2;ratioP2;P2;SDS_P1;SDS_P2;PMS_P1;PMS_P2;Temp;Humidity;BMP_temperature;BMP_pressure;BME280_temperature;BME280_humidity;BME280_pressure;Samples;Min_cycle;Max_cycle;Signal;HPM_P1;HPM_P2
2024/01/08 00:01:05;;;;;;;7.10;4.18;;;;;;;;;;4991159;28;20495;-66
2024/01/08 00:03:31;;;;;;;7.18;4.25;;;;;;;;;;4961386;28;20081;-66
2024/01/08 00:05:57;;;;;;;7.63;4.47;;;;;;;;;;4971630;28;20038;-66
2024/01/08 00:08:23;;;;;;;7.85;4.07;;;;;;;;;;4971363;28;20030;-66
2024/01/08 00:10:49;;;;;;;8.18;4.25;;;;;;;;;;4971964;28;20035;-66
2024/01/08 00:13:15;;;;;;;9.80;4.50;;;;;;;;;;4990747;28;20378;-66
2024/01/08 00:15:41;;;;;;;9.50;5.05;;;;;;;;;;4978254;28;20598;-66
2024/01/08 00:18:07;;;;;;;12.63;4.70;;;;;;;;;;4971999;28;20047;-66
2024/01/08 00:20:33;;;;;;;9.02;4.22;;;;;;;;;;4976273;28;20493;-66
2024/01/08 00:22:59;;;;;;;9.57;4.43;;;;;;;;;;4983569;28;20042;-66
2024/01/08 00:25:25;;;;;;;8.38;4.90;;;;;;;;;;4973281;28;20408;-66
2024/01/08 00:27:51;;;;;;;9.20;4.47;;;;;;;;;;4984740;28;20042;-66
2024/01/08 00:30:18;;;;;;;7.80;4.97;;;;;;;;;;4972630;28;20294;-66
2024/01/08 00:32:44;;;;;;;7.45;4.40;;;;;;;;;;4990634;28;20035;-66
2024/01/08 00:35:10;;;;;;;6.85;4.15;;;;;;;;;;4982336;28;20070;-66
2024/01/08 00:37:38;;;;;;;7.43;4.93;;;;;;;;;;4971397;28;20574;-66
2024/01/08 00:40:05;;;;;;;8.18;5.00;;;;;;;;;;4985799;28;20154;-66
2024/01/08 00:42:30;;;;;;;8.38;4.60;;;;;;;;;;4987274;28;20049;-66
2024/01/08 00:44:56;;;;;;;8.00;5.43;;;;;;;;;;4971084;28;20141;-66
2024/01/08 00:47:22;;;;;;;7.63;4.82;;;;;;;;;;4970778;28;20065;-66
2024/01/08 00:49:48;;;;;;;9.02;4.85;;;;;;;;;;4971676;28;20234;-66
2024/01/08 00:52:14;;;;;;;7.47;4.90;;;;;;;;;;4970191;28;20683;-66
2024/01/08 00:54:40;;;;;;;7.55;4.70;;;;;;;;;;4973981;28;20401;-66
2024/01/08 00:57:06;;;;;;;10.30;5.05;;;;;;;;;;4990091;28;20046;-66
2024/01/08 00:59:32;;;;;;;8.38;4.55;;;;;;;;;;4980217;28;20385;-66
2024/01/08 01:01:58;;;;;;;9.00;5.07;;;;;;;;;;4968220;28;20197;-66
2024/01/08 01:04:24;;;;;;;7.07;5.00;;;;;;;;;;4952743;28;20493;-66
2024/01/08 01:06:50;;;;;;;11.20;5.00;;;;;;;;;;4970572;28;20057;-66
2024/01/08 01:09:16;;;;;;;9.35;5.40;;;;;;;;;;4970963;28;20448;-66
2024/01/08 01:11:42;;;;;;;7.72;5.03;;;;;;;;;;4977961;28;20034;-66
2024/01/08 01:14:08;;;;;;;9.07;5.20;;;;;;;;;;4989423;28;20068;-66
2024/01/08 01:16:34;;;;;;;11.13;4.90;;;;;;;;;;4971554;28;20489;-66
2024/01/08 01:19:00;;;;;;;9.25;5.20;;;;;;;;;;4975357;28;20039;-66
2024/01/08 01:21:28;;;;;;;11.55;5.32;;;;;;;;;;4977910;28;20046;-66
2024/01/08 01:23:54;;;;;;;10.48;5.53;;;;;;;;;;4969899;28;20043;-66
2024/01/08 01:26:20;;;;;;;9.82;5.75;;;;;;;;;;4972777;28;20121;-66
2024/01/08 01:28:46;;;;;;;10.57;5.15;;;;;;;;;;4970179;28;20057;-66
2024/01/08 01:31:13;;;;;;;10.23;5.07;;;;;;;;;;4976272;28;20497;-66
2024/01/08 01:33:39;;;;;;;8.98;5.22;;;;;;;;;;4989888;28;20053;-66
2024/01/08 01:36:06;;;;;;;11.63;5.53;;;;;;;;;;4975903;28;20035;-66
2024/01/08 01:38:32;;;;;;;9.00;5.60;;;;;;;;;;4969533;28;20049;-66
2024/01/08 01:40:58;;;;;;;8.23;5.35;;;;;;;;;;4969973;28;20042;-66
2024/01/08 01:43:26;;;;;;;11.45;6.00;;;;;;;;;;4968031;28;20047;-66
2024/01/08 01:45:53;;;;;;;10.45;5.55;;;;;;;;;;4969593;28;20038;-66
2024/01/08 01:48:19;;;;;;;9.68;5.35;;;;;;;;;;4969752;28;20123;-66
2024/01/08 01:50:45;;;;;;;12.45;6.18;;;;;;;;;;4969813;28;20039;-66
2024/01/08 01:53:11;;;;;;;12.35;5.80;;;;;;;;;;4969631;28;20047;-66
2024/01/08 01:55:38;;;;;;;8.93;5.47;;;;;;;;;;4969536;28;20502;-66
2024/01/08 01:58:04;;;;;;;12.00;5.95;;;;;;;;;;4969543;28;20049;-66
2024/01/08 02:00:31;;;;;;;9.10;5.60;;;;;;;;;;4969520;28;20108;-66
2024/01/08 02:02:57;;;;;;;10.55;5.50;;;;;;;;;;4968729;28;20054;-66
2024/01/08 02:05:23;;;;;;;9.77;6.03;;;;;;;;;;4969567;28;20038;-66
2024/01/08 02:07:49;;;;;;;9.68;6.05;;;;;;;;;;4980043;28;20061;-66
2024/01/08 02:10:15;;;;;;;8.80;5.20;;;;;;;;;;4988940;28;20073;-66
2024/01/08 02:12:41;;;;;;;8.38;5.53;;;;;;;;;;4986502;28;20034;-66
2024/01/08 02:15:07;;;;;;;8.95;6.00;;;;;;;;;;4982976;28;20030;-66
2024/01/08 02:17:33;;;;;;;10.30;6.57;;;;;;;;;;4952006;28;20145;-66
2024/01/08 02:19:59;;;;;;;11.35;6.15;;;;;;;;;;4952472;28;20051;-66
2024/01/08 02:22:25;;;;;;;9.82;6.05;;;;;;;;;;4970935;28;20077;-66
2024/01/08 02:24:51;;;;;;;9.52;5.72;;;;;;;;;;4987105;28;20050;-66
2024/01/08 02:27:17;;;;;;;11.15;6.15;;;;;;;;;;4971230;28;20476;-66
2024/01/08 02:29:43;;;;;;;10.88;6.47;;;;;;;;;;4968930;28;20606;-66
2024/01/08 02:32:10;;;;;;;11.25;6.63;;;;;;;;;;4981172;28;20104;-66
2024/01/08 02:34:37;;;;;;;8.40;5.85;;;;;;;;;;4988153;28;20414;-66
2024/01/08 02:37:03;;;;;;;12.15;6.80;;;;;;;;;;4968988;28;20046;-66
2024/01/08 02:39:28;;;;;;;10.95;6.13;;;;;;;;;;4969080;28;20050;-66
2024/01/08 02:41:54;;;;;;;13.20;6.60;;;;;;;;;;4969327;28;20042;-66
2024/01/08 02:44:21;;;;;;;11.15;6.15;;;;;;;;;;4981538;28;20073;-66
2024/01/08 02:46:47;;;;;;;9.55;5.75;;;;;;;;;;4987044;28;20042;-66
2024/01/08 02:49:12;;;;;;;11.23;6.30;;;;;;;;;;4968994;28;20045;-66
2024/01/08 02:51:38;;;;;;;9.32;6.03;;;;;;;;;;4968957;28;20031;-66
2024/01/08 02:54:04;;;;;;;10.35;6.10;;;;;;;;;;4968099;28;20101;-66
2024/01/08 02:56:30;;;;;;;10.15;6.47;;;;;;;;;;4968343;28;20050;-66
2024/01/08 02:58:56;;;;;;;12.45;6.05;;;;;;;;;;4968588;28;20413;-66
2024/01/08 03:01:22;;;;;;;10.70;6.20;;;;;;;;;;4968849;28;20069;-66
2024/01/08 03:03:48;;;;;;;10.73;6.20;;;;;;;;;;4968138;28;20046;-66
2024/01/08 03:06:14;;;;;;;12.32;6.68;;;;;;;;;;4968470;28;20235;-66
2024/01/08 03:08:40;;;;;;;9.75;6.18;;;;;;;;;;4984180;28;20053;-66
2024/01/08 03:11:06;;;;;;;9.38;6.45;;;;;;;;;;4987857;28;20139;-66
2024/01/08 03:13:32;;;;;;;13.02;6.35;;;;;;;;;;4988195;28;20065;-66
2024/01/08 03:15:58;;;;;;;11.77;6.20;;;;;;;;;;4944061;28;20477;-66
2024/01/08 03:18:24;;;;;;;13.93;6.35;;;;;;;;;;4968866;28;20045;-66
2024/01/08 03:20:50;;;;;;;14.02;6.93;;;;;;;;;;4975289;28;20069;-66
2024/01/08 03:23:16;;;;;;;11.90;7.13;;;;;;;;;;4983595;28;20489;-66
2024/01/08 03:25:42;;;;;;;13.15;7.22;;;;;;;;;;4967600;28;20035;-66
2024/01/08 03:28:08;;;;;;;17.58;7.40;;;;;;;;;;4973820;28;20061;-66
2024/01/08 03:30:34;;;;;;;11.73;7.13;;;;;;;;;;4968158;28;20121;-66
2024/01/08 03:33:00;;;;;;;10.82;6.35;;;;;;;;;;4985527;28;20089;-66
2024/01/08 03:35:26;;;;;;;12.27;7.13;;;;;;;;;;4982440;28;20050;-66
2024/01/08 03:37:52;;;;;;;14.57;7.50;;;;;;;;;;4968331;28;20057;-66
2024/01/08 03:40:18;;;;;;;15.18;7.00;;;;;;;;;;4979539;28;20418;-66
2024/01/08 03:42:45;;;;;;;10.00;6.45;;;;;;;;;;4987104;28;20129;-66
2024/01/08 03:45:11;;;;;;;12.13;6.60;;;;;;;;;;4968326;28;20039;-66
2024/01/08 03:47:39;;;;;;;9.48;6.22;;;;;;;;;;4967669;28;20206;-66
2024/01/08 03:50:06;;;;;;;13.40;6.85;;;;;;;;;;4968406;28;20046;-66
2024/01/08 03:52:32;;;;;;;10.57;6.40;;;;;;;;;;4968065;28;20042;-66
2024/01/08 03:54:58;;;;;;;12.98;6.40;;;;;;;;;;4967541;28;20035;-66
2024/01/08 03:57:24;;;;;;;10.60;6.20;;;;;;;;;;4987334;28;20435;-66
2024/01/08 03:59:50;;;;;;;9.60;5.95;;;;;;;;;;4980016;28;20046;-66
2024/01/08 04:02:16;;;;;;;11.90;6.03;;;;;;;;;;4967903;28;20628;-66
2024/01/08 04:04:42;;;;;;;10.13;6.35;;;;;;;;;;4972152;28;20050;-66
2024/01/08 04:07:11;;;;;;;9.77;6.07;;;;;;;;;;4978355;28;20405;-66
2024/01/08 04:09:39;;;;;;;9.93;5.75;;;;;;;;;;4982787;28;20050;-66
2024/01/08 04:12:05;;;;;;;8.70;5.32;;;;;;;;;;4985168;28;20441;-66
2024/01/08 04:14:31;;;;;;;8.70;5.32;;;;;;;;;;4950005;28;20062;-66
2024/01/08 04:16:57;;;;;;;10.15;5.70;;;;;;;;;;4968440;28;20053;-66
2024/01/08 04:19:24;;;;;;;8.35;5.45;;;;;;;;;;4970990;28;20158;-66
2024/01/08 04:21:50;;;;;;;10.23;5.47;;;;;;;;;;4974701;28;20105;-66
2024/01/08 04:24:16;;;;;;;11.88;6.25;;;;;;;;;;4971898;28;20065;-66
2024/01/08 04:26:42;;;;;;;8.80;5.78;;;;;;;;;;4976351;28;20038;-66
2024/01/08 04:29:10;;;;;;;10.30;6.10;;;;;;;;;;4969760;28;20587;-66
2024/01/08 04:31:36;;;;;;;10.10;5.82;;;;;;;;;;4974915;28;20042;-66
2024/01/08 04:34:02;;;;;;;10.13;6.13;;;;;;;;;;4971689;28;20072;-66
2024/01/08 04:36:29;;;;;;;8.95;5.72;;;;;;;;;;4978292;28;20508;-66
2024/01/08 04:38:55;;;;;;;8.60;5.85;;;;;;;;;;4988585;28;20046;-66
2024/01/08 04:41:21;;;;;;;8.82;5.32;;;;;;;;;;4980233;28;20528;-66
2024/01/08 04:43:47;;;;;;;9.57;5.72;;;;;;;;;;4985040;28;20042;-66
2024/01/08 04:46:13;;;;;;;8.75;5.03;;;;;;;;;;4970790;28;20074;-66
2024/01/08 04:48:40;;;;;;;7.90;5.88;;;;;;;;;;4971040;28;20089;-66
2024/01/08 04:51:06;;;;;;;12.40;5.32;;;;;;;;;;4971470;28;20073;-66
2024/01/08 04:53:36;;;;;;;10.77;5.93;;;;;;;;;;4970616;28;20521;-66
2024/01/08 04:56:02;;;;;;;8.35;5.72;;;;;;;;;;4972846;28;20034;-66
2024/01/08 04:58:28;;;;;;;8.55;5.43;;;;;;;;;;4988165;28;20042;-66
2024/01/08 05:00:54;;;;;;;9.10;5.53;;;;;;;;;;4970390;28;20102;-66
2024/01/08 05:03:20;;;;;;;9.35;5.47;;;;;;;;;;4972311;28;20047;-66
2024/01/08 05:05:46;;;;;;;9.77;5.03;;;;;;;;;;4990041;28;20423;-66
2024/01/08 05:08:12;;;;;;;7.93;5.53;;;;;;;;;;4980739;28;20035;-66
2024/01/08 05:10:38;;;;;;;8.95;5.45;;;;;;;;;;4971225;28;20046;-66
2024/01/08 05:13:05;;;;;;;7.18;4.93;;;;;;;;;;4971857;28;20034;-66
2024/01/08 05:15:32;;;;;;;8.80;4.10;;;;;;;;;;4970330;28;20109;-66
2024/01/08 05:17:58;;;;;;;7.35;4.15;;;;;;;;;;4970378;28;20066;-66
2024/01/08 05:20:24;;;;;;;8.00;4.35;;;;;;;;;;4979664;28;20050;-66
2024/01/08 05:22:50;;;;;;;6.03;4.25;;;;;;;;;;4972714;28;20089;-66
2024/01/08 05:25:16;;;;;;;7.20;3.83;;;;;;;;;;4973922;28;20043;-66
2024/01/08 05:27:42;;;;;;;6.55;4.00;;;;;;;;;;4971565;28;20417;-66
2024/01/08 05:30:08;;;;;;;4.80;3.45;;;;;;;;;;4958481;28;20047;-66
2024/01/08 05:32:34;;;;;;;6.38;4.20;;;;;;;;;;4961366;28;20460;-66
2024/01/08 05:35:00;;;;;;;8.50;3.55;;;;;;;;;;4970573;28;20035;-66
2024/01/08 05:37:26;;;;;;;6.32;3.55;;;;;;;;;;4972219;28;20130;-66
2024/01/08 05:39:52;;;;;;;7.53;3.50;;;;;;;;;;4971171;28;20077;-66
2024/01/08 05:42:18;;;;;;;8.05;3.80;;;;;;;;;;4972141;28;20500;-66
2024/01/08 05:44:44;;;;;;;5.20;3.30;;;;;;;;;;4972178;28;20125;-66
2024/01/08 05:47:10;;;;;;;5.88;3.55;;;;;;;;;;4971195;28;20042;-66
2024/01/08 05:49:38;;;;;;;5.13;3.28;;;;;;;;;;4971151;28;20100;-65
2024/01/08 05:52:04;;;;;;;7.18;3.83;;;;;;;;;;4971557;28;20047;-65
2024/01/08 05:54:30;;;;;;;6.75;3.53;;;;;;;;;;4971899;28;20035;-66
2024/01/08 05:56:57;;;;;;;7.22;4.10;;;;;;;;;;4971412;28;20047;-66
2024/01/08 05:59:23;;;;;;;6.78;3.60;;;;;;;;;;4971390;28;20047;-66
2024/01/08 06:01:49;;;;;;;7.38;3.92;;;;;;;;;;4971647;28;20053;-66
2024/01/08 06:04:15;;;;;;;7.97;4.70;;;;;;;;;;4978301;28;20046;-66
2024/01/08 06:06:41;;;;;;;8.07;4.50;;;;;;;;;;4990515;28;20108;-66
2024/01/08 06:09:08;;;;;;;8.48;4.40;;;;;;;;;;4977445;28;20077;-66
2024/01/08 06:11:34;;;;;;;8.23;4.75;;;;;;;;;;4971850;28;20043;-66
2024/01/08 06:14:02;;;;;;;9.15;4.90;;;;;;;;;;4972238;28;20050;-66
2024/01/08 06:16:35;;;;;;;9.05;4.85;;;;;;;;;;4973449;28;20047;-66
2024/01/08 06:19:01;;;;;;;;;;;;;;;;;;4991002;28;20049;-66
2024/01/08 06:21:26;;;;;;;8.70;5.07;;;;;;;;;;4975011;28;20361;-66
2024/01/08 06:23:52;;;;;;;8.52;5.10;;;;;;;;;;4975251;28;20038;-66
2024/01/08 06:26:18;;;;;;;11.27;5.32;;;;;;;;;;4967026;28;20138;-66
2024/01/08 06:28:44;;;;;;;7.80;4.65;;;;;;;;;;4971243;28;20085;-66
2024/01/08 06:31:10;;;;;;;8.18;5.63;;;;;;;;;;4971145;28;20051;-66
2024/01/08 06:33:37;;;;;;;9.25;4.90;;;;;;;;;;4971485;28;20772;-66
2024/01/08 06:36:03;;;;;;;10.13;4.68;;;;;;;;;;4971335;28;20381;-66
2024/01/08 06:38:29;;;;;;;9.13;4.82;;;;;;;;;;4969433;28;20054;-66
2024/01/08 06:40:55;;;;;;;10.43;5.20;;;;;;;;;;4961913;28;20054;-66
2024/01/08 06:43:21;;;;;;;11.43;4.95;;;;;;;;;;4971561;28;20050;-66
2024/01/08 06:45:49;;;;;;;10.07;5.85;;;;;;;;;;4937534;28;20046;-66
2024/01/08 06:48:15;;;;;;;12.43;5.80;;;;;;;;;;4970403;28;20051;-66
2024/01/08 06:50:41;;;;;;;10.45;5.78;;;;;;;;;;4970545;28;20173;-66
2024/01/08 06:53:07;;;;;;;10.57;4.82;;;;;;;;;;4971094;28;20042;-66
2024/01/08 06:55:33;;;;;;;7.57;4.97;;;;;;;;;;4970414;28;20445;-66
2024/01/08 06:57:59;;;;;;;9.50;5.10;;;;;;;;;;4979641;28;20120;-66
2024/01/08 07:00:27;;;;;;;10.82;5.05;;;;;;;;;;4983545;28;20039;-66
2024/01/08 07:02:53;;;;;;;8.60;5.15;;;;;;;;;;4976147;28;20037;-66
2024/01/08 07:05:19;;;;;;;9.05;5.05;;;;;;;;;;4976745;28;20528;-66
2024/01/08 07:07:45;;;;;;;9.65;4.57;;;;;;;;;;4952720;28;20039;-66
2024/01/08 07:10:11;;;;;;;8.80;5.10;;;;;;;;;;4971069;28;20129;-66
2024/01/08 07:12:37;;;;;;;10.30;5.68;;;;;;;;;;4977536;28;20121;-66
2024/01/08 07:15:04;;;;;;;12.75;5.38;;;;;;;;;;4970832;28;20109;-66
2024/01/08 07:17:30;;;;;;;12.60;4.35;;;;;;;;;;4970204;28;20055;-66
2024/01/08 07:19:56;;;;;;;8.48;4.88;;;;;;;;;;4972674;28;20043;-66
2024/01/08 07:22:22;;;;;;;8.13;4.55;;;;;;;;;;4989930;28;20042;-66
2024/01/08 07:24:48;;;;;;;10.13;4.88;;;;;;;;;;4980930;28;20578;-66
2024/01/08 07:27:14;;;;;;;12.45;5.22;;;;;;;;;;4969106;28;20051;-66
2024/01/08 07:29:40;;;;;;;8.80;4.78;;;;;;;;;;4966624;28;20463;-66
2024/01/08 07:32:06;;;;;;;7.03;4.65;;;;;;;;;;4970987;28;20055;-66
2024/01/08 07:34:32;;;;;;;8.32;4.65;;;;;;;;;;4967597;28;20603;-67
2024/01/08 07:37:00;;;;;;;7.53;4.57;;;;;;;;;;4968350;28;20130;-67
2024/01/08 07:39:26;;;;;;;7.95;4.63;;;;;;;;;;4969380;28;20050;-67
2024/01/08 07:41:52;;;;;;;8.32;4.60;;;;;;;;;;4956652;28;20038;-67
2024/01/08 07:44:18;;;;;;;6.70;4.50;;;;;;;;;;4970172;28;20070;-66
2024/01/08 07:46:44;;;;;;;7.20;4.50;;;;;;;;;;4969319;28;20418;-66
2024/01/08 07:49:11;;;;;;;5.68;4.15;;;;;;;;;;4969414;28;20042;-66
2024/01/08 07:51:37;;;;;;;7.38;4.25;;;;;;;;;;4972157;28;20046;-66
2024/01/08 07:54:03;;;;;;;8.25;4.63;;;;;;;;;;4968555;28;20458;-67
2024/01/08 07:56:29;;;;;;;8.82;4.15;;;;;;;;;;4969323;28;20077;-67
2024/01/08 07:58:55;;;;;;;7.72;4.43;;;;;;;;;;4967288;28;20063;-66
2024/01/08 08:01:21;;;;;;;8.63;4.45;;;;;;;;;;4969358;28;20086;-67
2024/01/08 08:03:47;;;;;;;9.38;4.82;;;;;;;;;;4944781;28;20557;-67
2024/01/08 08:06:13;;;;;;;9.55;4.28;;;;;;;;;;4968274;28;20042;-67
2024/01/08 08:08:39;;;;;;;8.30;4.07;;;;;;;;;;4951208;28;20682;-68
2024/01/08 08:11:06;;;;;;;9.40;3.83;;;;;;;;;;4951686;28;20051;-68
2024/01/08 08:13:32;;;;;;;9.52;4.25;;;;;;;;;;4962666;28;20074;-67
2024/01/08 08:15:59;;;;;;;6.93;4.10;;;;;;;;;;4956355;28;20114;-68
2024/01/08 08:18:25;;;;;;;10.35;4.80;;;;;;;;;;4963923;28;20729;-68
2024/01/08 08:20:51;;;;;;;6.90;4.13;;;;;;;;;;4972829;28;20051;-68
2024/01/08 08:23:17;;;;;;;6.72;3.65;;;;;;;;;;4956083;28;20627;-67
2024/01/08 08:25:43;;;;;;;6.72;3.78;;;;;;;;;;4955884;28;20089;-68
2024/01/08 08:28:09;;;;;;;7.13;4.22;;;;;;;;;;4973804;28;20046;-68
2024/01/08 08:30:35;;;;;;;8.88;3.90;;;;;;;;;;4965649;28;20047;-67
2024/01/08 08:33:01;;;;;;;8.98;4.30;;;;;;;;;;4972482;28;20125;-68
2024/01/08 08:35:27;;;;;;;5.38;3.78;;;;;;;;;;4950793;28;20070;-68
2024/01/08 08:37:56;;;;;;;8.73;4.05;;;;;;;;;;4964680;28;20046;-68
2024/01/08 08:40:22;;;;;;;8.02;4.10;;;;;;;;;;4954069;28;20078;-67
2024/01/08 08:42:49;;;;;;;5.85;3.90;;;;;;;;;;4970255;28;20113;-67
2024/01/08 08:45:17;;;;;;;6.05;4.28;;;;;;;;;;4970041;28;20097;-66
2024/01/08 08:47:43;;;;;;;8.40;4.55;;;;;;;;;;4958638;28;20043;-67
2024/01/08 08:50:09;;;;;;;9.18;4.50;;;;;;;;;;4955217;28;20133;-67
2024/01/08 08:52:35;;;;;;;7.07;4.00;;;;;;;;;;4955746;28;20039;-67
2024/01/08 08:55:01;;;;;;;6.90;4.25;;;;;;;;;;4955800;28;20050;-67
2024/01/08 08:57:27;;;;;;;8.02;4.10;;;;;;;;;;4955429;28;20054;-67
2024/01/08 08:59:53;;;;;;;10.93;4.45;;;;;;;;;;4954713;28;20055;-67
2024/01/08 09:02:19;;;;;;;7.88;4.35;;;;;;;;;;4969137;28;20097;-66
2024/01/08 09:04:47;;;;;;;7.80;4.85;;;;;;;;;;4972694;28;20437;-67
2024/01/08 09:07:13;;;;;;;7.03;4.47;;;;;;;;;;4959879;28;20058;-68
2024/01/08 09:09:39;;;;;;;6.32;4.00;;;;;;;;;;4961030;28;20034;-69
2024/01/08 09:12:05;;;;;;;10.25;4.30;;;;;;;;;;4957311;28;20039;-68
2024/01/08 09:14:31;;;;;;;7.10;4.22;;;;;;;;;;4972739;28;20146;-68
2024/01/08 09:16:57;;;;;;;6.55;4.10;;;;;;;;;;4971318;28;20497;-68
2024/01/08 09:19:23;;;;;;;8.38;3.88;;;;;;;;;;4970231;28;20050;-68
2024/01/08 09:21:49;;;;;;;6.45;3.72;;;;;;;;;;4986933;28;20069;-67
2024/01/08 09:24:15;;;;;;;6.28;4.00;;;;;;;;;;4957552;28;20043;-67
2024/01/08 09:26:42;;;;;;;8.90;4.60;;;;;;;;;;4957361;28;20138;-67
2024/01/08 09:29:08;;;;;;;8.48;3.80;;;;;;;;;;4972576;28;20035;-68
2024/01/08 09:31:34;;;;;;;6.43;3.58;;;;;;;;;;4962066;28;20541;-67
2024/01/08 09:34:00;;;;;;;8.60;4.05;;;;;;;;;;4959563;28;20035;-66
2024/01/08 09:36:26;;;;;;;8.10;4.10;;;;;;;;;;4971872;28;20512;-67
2024/01/08 09:38:52;;;;;;;8.05;4.47;;;;;;;;;;4971647;28;20085;-67
2024/01/08 09:41:18;;;;;;;8.50;4.00;;;;;;;;;;4970917;28;20042;-67
2024/01/08 09:43:48;;;;;;;8.00;3.80;;;;;;;;;;4970398;28;20078;-68
2024/01/08 09:46:19;;;;;;;8.45;3.63;;;;;;;;;;4962722;28;20052;-67
2024/01/08 09:48:45;;;;;;;8.60;3.90;;;;;;;;;;4953284;28;20101;-67
2024/01/08 09:51:12;;;;;;;7.38;3.40;;;;;;;;;;4969277;28;20126;-67
2024/01/08 09:53:38;;;;;;;10.60;3.85;;;;;;;;;;4973760;28;20042;-68
2024/01/08 09:56:04;;;;;;;5.78;3.80;;;;;;;;;;4972155;28;20050;-68
2024/01/08 09:58:30;;;;;;;7.50;4.30;;;;;;;;;;4969896;28;20445;-68
2024/01/08 10:00:56;;;;;;;15.50;5.15;;;;;;;;;;4956367;28;20070;-68
2024/01/08 10:03:22;;;;;;;7.35;4.38;;;;;;;;;;4956614;28;20512;-68
2024/01/08 10:05:48;;;;;;;11.07;4.53;;;;;;;;;;4953848;28;20393;-67
2024/01/08 10:08:14;;;;;;;6.88;3.95;;;;;;;;;;4937063;28;20409;-67
2024/01/08 10:10:40;;;;;;;16.40;8.45;;;;;;;;;;4952968;28;20710;-68
2024/01/08 10:13:09;;;;;;;5.38;3.45;;;;;;;;;;4964210;28;20038;-68
2024/01/08 10:15:35;;;;;;;5.50;4.03;;;;;;;;;;4952963;28;20042;-68
2024/01/08 10:18:02;;;;;;;7.40;3.70;;;;;;;;;;4953639;28;20061;-68
2024/01/08 10:20:28;;;;;;;7.47;4.00;;;;;;;;;;4952445;28;20105;-68
2024/01/08 10:23:04;;;;;;;6.07;3.40;;;;;;;;;;4956409;28;20054;-68
2024/01/08 10:25:30;;;;;;;9.48;4.45;;;;;;;;;;4952994;28;20054;-69
2024/01/08 10:27:56;;;;;;;5.90;3.65;;;;;;;;;;4959559;28;20058;-68
2024/01/08 10:30:22;;;;;;;7.38;3.85;;;;;;;;;;4970463;28;20035;-67
2024/01/08 10:32:48;;;;;;;7.25;3.78;;;;;;;;;;4971409;28;20039;-68
2024/01/08 10:35:14;;;;;;;9.50;4.40;;;;;;;;;;4961390;28;20066;-67
2024/01/08 10:37:40;;;;;;;10.02;5.72;;;;;;;;;;4971118;28;20050;-68
2024/01/08 10:40:09;;;;;;;6.55;3.83;;;;;;;;;;4972295;28;20039;-68
2024/01/08 10:42:38;;;;;;;11.35;3.78;;;;;;;;;;4971329;28;20054;-68
2024/01/08 10:45:04;;;;;;;7.38;3.67;;;;;;;;;;4970779;28;20492;-67
2024/01/08 10:47:34;;;;;;;7.18;3.40;;;;;;;;;;4953804;28;20073;-67
2024/01/08 10:50:05;;;;;;;5.97;3.17;;;;;;;;;;4970334;28;20180;-68
2024/01/08 10:52:34;;;;;;;5.93;3.10;;;;;;;;;;4954901;28;20046;-68
2024/01/08 10:55:01;;;;;;;8.15;3.30;;;;;;;;;;4955906;28;20049;-68
2024/01/08 10:57:36;;;;;;;6.90;3.13;;;;;;;;;;4970945;28;20516;-68
2024/01/08 11:00:06;;;;;;;5.00;3.28;;;;;;;;;;4970683;28;20483;-68
2024/01/08 11:02:37;;;;;;;5.80;3.17;;;;;;;;;;4969963;28;20066;-68
2024/01/08 11:05:05;;;;;;;8.45;3.45;;;;;;;;;;4970471;28;20132;-68
2024/01/08 11:07:33;;;;;;;5.82;3.25;;;;;;;;;;4969239;28;20549;-68
2024/01/08 11:10:06;;;;;;;4.57;3.10;;;;;;;;;;4953559;28;20038;-69
2024/01/08 11:12:35;;;;;;;7.93;4.03;;;;;;;;;;4960817;28;20054;-68
2024/01/08 11:15:02;;;;;;;8.90;3.67;;;;;;;;;;4966840;28;20039;-68
2024/01/08 11:17:28;;;;;;;6.70;3.90;;;;;;;;;;4956221;28;20050;-68
2024/01/08 11:19:57;;;;;;;5.30;3.03;;;;;;;;;;4957110;28;20062;-67
2024/01/08 11:22:23;;;;;;;7.70;4.20;;;;;;;;;;4967030;28;20058;-68
2024/01/08 11:24:49;;;;;;;8.45;3.60;;;;;;;;;;4957578;28;20039;-68
2024/01/08 11:27:21;;;;;;;6.05;3.45;;;;;;;;;;4963246;28;20046;-67
2024/01/08 11:30:03;;;;;;;6.15;3.60;;;;;;;;;;4966717;28;20709;-69
2024/01/08 11:32:48;;;;;;;7.00;3.33;;;;;;;;;;4949496;28;20043;-68
2024/01/08 11:35:19;;;;;;;5.82;2.97;;;;;;;;;;4964775;28;20034;-68
2024/01/08 11:37:46;;;;;;;7.25;3.88;;;;;;;;;;4953274;28;20089;-68
2024/01/08 11:40:17;;;;;;;5.43;3.38;;;;;;;;;;4952205;28;20521;-68
2024/01/08 11:42:43;;;;;;;8.00;3.78;;;;;;;;;;4951764;28;20053;-68
2024/01/08 11:45:09;;;;;;;4.85;3.15;;;;;;;;;;4951602;28;20131;-67
2024/01/08 11:47:36;;;;;;;8.25;3.70;;;;;;;;;;4969172;28;20886;-67
2024/01/08 11:50:02;;;;;;;6.05;3.35;;;;;;;;;;4974993;28;20042;-68
2024/01/08 11:52:29;;;;;;;6.68;3.60;;;;;;;;;;4965315;28;20125;-68
2024/01/08 11:54:55;;;;;;;5.05;3.03;;;;;;;;;;4955585;28;20043;-68
2024/01/08 11:57:22;;;;;;;6.00;3.53;;;;;;;;;;4973024;28;20039;-68
2024/01/08 11:59:49;;;;;;;4.70;3.30;;;;;;;;;;4955465;28;20570;-68
2024/01/08 12:02:15;;;;;;;8.23;3.38;;;;;;;;;;4954140;28;20066;-68
2024/01/08 12:04:42;;;;;;;6.20;3.13;;;;;;;;;;4963384;28;20146;-69
2024/01/08 12:07:12;;;;;;;5.55;3.30;;;;;;;;;;4971528;28;20468;-68
2024/01/08 12:09:38;;;;;;;5.03;3.22;;;;;;;;;;4978204;28;20038;-67
2024/01/08 12:12:05;;;;;;;5.95;3.10;;;;;;;;;;4981566;28;20129;-67
2024/01/08 12:14:32;;;;;;;5.85;3.40;;;;;;;;;;4973396;28;20097;-67
2024/01/08 12:16:58;;;;;;;8.00;3.75;;;;;;;;;;4966198;28;20047;-68
2024/01/08 12:19:35;;;;;;;5.78;3.47;;;;;;;;;;4973771;28;20085;-68
2024/01/08 12:22:01;;;;;;;5.60;3.50;;;;;;;;;;4981025;28;20121;-67
2024/01/08 12:24:27;;;;;;;10.15;3.40;;;;;;;;;;4984534;28;20039;-67
2024/01/08 12:26:53;;;;;;;5.75;3.30;;;;;;;;;;4976281;28;20042;-67
2024/01/08 12:29:19;;;;;;;5.03;3.33;;;;;;;;;;4970780;28;20046;-67
2024/01/08 12:31:45;;;;;;;6.25;3.70;;;;;;;;;;4981624;28;20043;-67
2024/01/08 12:34:12;;;;;;;7.65;3.85;;;;;;;;;;4973488;28;20035;-67
2024/01/08 12:36:38;;;;;;;7.32;4.32;;;;;;;;;;4973515;28;20039;-67
2024/01/08 12:39:04;;;;;;;6.97;3.53;;;;;;;;;;4959504;28;20039;-67
2024/01/08 12:41:30;;;;;;;5.78;3.83;;;;;;;;;;4950523;28;20745;-68
2024/01/08 12:43:56;;;;;;;5.13;3.28;;;;;;;;;;4954237;28;20073;-69
2024/01/08 12:46:22;;;;;;;6.35;3.75;;;;;;;;;;4953420;28;20459;-68
2024/01/08 12:48:48;;;;;;;8.45;4.15;;;;;;;;;;4955587;28;20057;-68
2024/01/08 12:51:14;;;;;;;5.50;3.83;;;;;;;;;;4955965;28;20047;-68
2024/01/08 12:53:41;;;;;;;6.65;4.15;;;;;;;;;;4953575;28;20050;-68
2024/01/08 12:56:09;;;;;;;6.57;3.97;;;;;;;;;;4955755;28;20046;-67
2024/01/08 12:58:35;;;;;;;6.07;3.90;;;;;;;;;;4951712;28;20038;-70
2024/01/08 13:01:01;;;;;;;6.32;4.00;;;;;;;;;;4966365;28;20058;-66
2024/01/08 13:03:27;;;;;;;9.55;3.72;;;;;;;;;;4984568;28;20125;-67
2024/01/08 13:05:53;;;;;;;7.93;3.65;;;;;;;;;;4973323;28;20097;-68
2024/01/08 13:08:19;;;;;;;6.78;3.60;;;;;;;;;;4973254;28;20492;-68
2024/01/08 13:10:45;;;;;;;6.60;4.22;;;;;;;;;;4973350;28;20038;-68
2024/01/08 13:13:11;;;;;;;7.78;3.58;;;;;;;;;;4978297;28;20038;-67
2024/01/08 13:15:37;;;;;;;8.75;3.80;;;;;;;;;;4972645;28;20054;-67
2024/01/08 13:18:03;;;;;;;7.88;3.60;;;;;;;;;;4956864;28;20049;-68
2024/01/08 13:20:29;;;;;;;7.07;4.47;;;;;;;;;;4971300;28;20048;-66
2024/01/08 13:22:55;;;;;;;6.13;3.90;;;;;;;;;;4984908;28;20060;-67
2024/01/08 13:25:21;;;;;;;6.60;3.60;;;;;;;;;;4977715;28;20050;-67
2024/01/08 13:27:47;;;;;;;8.35;3.90;;;;;;;;;;4969265;28;20049;-67
2024/01/08 13:30:13;;;;;;;5.35;3.92;;;;;;;;;;4972983;28;20078;-67
2024/01/08 13:32:39;;;;;;;4.90;2.92;;;;;;;;;;4973511;28;20039;-67
2024/01/08 13:35:06;;;;;;;8.30;4.60;;;;;;;;;;4956115;28;20039;-67
2024/01/08 13:37:32;;;;;;;6.47;3.80;;;;;;;;;;4971526;28;20074;-67
2024/01/08 13:39:59;;;;;;;6.78;4.13;;;;;;;;;;4971712;28;20086;-68
2024/01/08 13:42:25;;;;;;;6.15;3.90;;;;;;;;;;4967681;28;20050;-68
2024/01/08 13:44:51;;;;;;;7.00;4.30;;;;;;;;;;4970640;28;20089;-67
2024/01/08 13:47:17;;;;;;;7.43;4.82;;;;;;;;;;4986612;28;20035;-67
2024/01/08 13:49:43;;;;;;;7.55;4.15;;;;;;;;;;4975091;28;20045;-68
2024/01/08 13:52:09;;;;;;;7.70;4.60;;;;;;;;;;4987411;28;20046;-68
2024/01/08 13:54:35;;;;;;;5.75;2.90;;;;;;;;;;4971215;28;20035;-68
2024/01/08 13:57:01;;;;;;;8.20;3.75;;;;;;;;;;4954702;28;20054;-69
2024/01/08 13:59:28;;;;;;;5.18;3.60;;;;;;;;;;4971065;28;20042;-68
2024/01/08 14:01:54;;;;;;;6.78;3.67;;;;;;;;;;4971200;28;20143;-67
2024/01/08 14:04:21;;;;;;;8.20;3.88;;;;;;;;;;4967641;28;20124;-67
2024/01/08 14:06:47;;;;;;;9.75;4.80;;;;;;;;;;4972012;28;20440;-67
2024/01/08 14:09:13;;;;;;;7.38;3.88;;;;;;;;;;4971791;28;20034;-67
2024/01/08 14:11:39;;;;;;;7.35;4.20;;;;;;;;;;4978349;28;20038;-67
2024/01/08 14:14:05;;;;;;;8.77;4.55;;;;;;;;;;4972265;28;20047;-67
2024/01/08 14:16:32;;;;;;;8.20;4.30;;;;;;;;;;4972228;28;20130;-67
2024/01/08 14:18:58;;;;;;;5.65;3.38;;;;;;;;;;4973965;28;20057;-67
2024/01/08 14:21:24;;;;;;;8.73;4.38;;;;;;;;;;4961626;28;20057;-67
2024/01/08 14:23:50;;;;;;;4.45;3.35;;;;;;;;;;4953694;28;20043;-67
2024/01/08 14:26:16;;;;;;;6.65;3.83;;;;;;;;;;4976634;28;20504;-67
2024/01/08 14:28:42;;;;;;;5.93;3.60;;;;;;;;;;4983693;28;20050;-67
2024/01/08 14:31:08;;;;;;;6.47;3.72;;;;;;;;;;4966637;28;20080;-67
2024/01/08 14:33:37;;;;;;;4.88;2.95;;;;;;;;;;4959122;28;20132;-67
2024/01/08 14:36:03;;;;;;;8.80;3.50;;;;;;;;;;4954256;28;20051;-67